• Join FlightAware (Why Join?)
  • Login
  • US Flag 
08:57PM EDT


 

Airport Tracker/Info


-or-


 

Live Flight TrackerFlight Track Log ✈ CPT8773 ✈ 14-Jun-2013 ✈ KCPR - KCOD

Flight Track Log - Related Links

Times and Time Zones

All times are in EDT time to prevent confusion due to time zone crossing. See the CPT8773 flight status page for this flight to view local times or setup timezone preferences in your user account.

Time Position Orientation Groundspeed Altitude Reporting Facility
EDT Latitude Longitude Course Direction KTS MPH feet Rate Location/Type
09:03AM 42.9739 -106.5328 36° Northeast 127 146 7,400  Level Denver Center
09:04AM 43.0103 -106.5478 343° North 124 143 8,100 660 Climbing Denver Center
09:05AM 43.0422 -106.5589 346° North 123 142 8,800 720 Climbing Denver Center
09:06AM 43.0736 -106.5664 350° North 121 139 9,600 660 Climbing Denver Center
09:07AM 42.9642 -106.3867 45° Northeast  Level FlightAware Approximate
09:07AM 43.1042 -106.5775 345° North 110 127 10,200  Level Denver Center
09:08AM 42.9968 -106.3532 36° Northeast  Level FlightAware Approximate
09:08AM 43.1358 -106.5853 350° North 116 133 10,700  Level Denver Center
09:09AM 43.1686 -106.5928 351° North 123 142 11,100 240 Climbing Denver Center
09:10AM 43.2139 -106.6058 348° North 144 166 11,300 240 Climbing Denver Center
09:11AM 43.2547 -106.6186 347° North 154 177 11,600 240 Climbing Denver Center
09:12AM 43.2906 -106.6497 328° Northwest 140 161 11,900 180 Climbing Denver Center
09:13AM 43.3081 -106.6919 300° West 132 152 12,000  Climbing Denver Center
09:14AM 43.3314 -106.7311 309° West 138 159 12,000  Level Denver Center
09:15AM 43.3578 -106.7808 306° West 144 166 12,000  Level Denver Center
09:16AM 43.3811 -106.8256 306° West 150 173 12,000  Level Denver Center
09:17AM 43.4089 -106.8764 307° West 152 175 12,000  Level Denver Center
09:18AM 43.4317 -106.9217 305° West 151 174 12,000  Level Denver Center
09:19AM 43.4567 -106.9686 306° West 157 181 12,000  Level Denver Center
09:20AM 43.4861 -107.0233 307° West 160 184 12,000  Level Denver Center
09:21AM 43.5114 -107.0708 306° West 161 185 12,000  Level Denver Center
09:22AM 43.5347 -107.1183 304° West 157 181 12,000  Level Denver Center
09:23AM 43.5642 -107.1742 306° West 158 182 12,000  Level Salt Lake Center
09:24AM 43.5883 -107.2214 305° West 157 181 12,000  Level Salt Lake Center
09:25AM 43.6133 -107.2692 306° West 159 183 12,000  Level Salt Lake Center
09:26AM 43.6406 -107.3172 308° West 151 174 12,000  Level Salt Lake Center
09:27AM 43.6611 -107.3592 304° West 144 166 12,000  Level Salt Lake Center
09:28AM 43.6833 -107.3997 307° West 140 161 12,000  Level Salt Lake Center
09:29AM 43.7092 -107.4503 305° West 141 162 12,000  Level Salt Lake Center
09:30AM 43.7319 -107.4919 307° West 143 165 12,000  Level Salt Lake Center
09:31AM 43.7553 -107.5339 308° West 143 165 12,000  Level Salt Lake Center
09:32AM 43.7803 -107.5839 305° West 143 165 12,000  Level Salt Lake Center
09:33AM 43.8031 -107.6258 307° West 142 163 12,000  Level Salt Lake Center
09:34AM 43.8247 -107.6683 305° West 141 162 12,000  Level Salt Lake Center
09:35AM 43.8497 -107.7164 306° West 140 161 12,000  Level Salt Lake Center
09:36AM 43.8728 -107.7578 308° West 140 161 12,000  Level Salt Lake Center
09:37AM 43.8992 -107.8069 307° West 141 162 12,000  Level Salt Lake Center
09:38AM 43.9200 -107.8492 304° West 140 161 12,000  Level Salt Lake Center
09:39AM 43.9425 -107.8928 306° West 142 163 12,000  Level Salt Lake Center
09:40AM 43.9675 -107.9428 305° West 142 163 12,000  Level Salt Lake Center
09:41AM 43.9900 -107.9844 307° West 141 162 12,000  Level Salt Lake Center
09:42AM 44.0114 -108.0267 305° West 140 161 12,000  Level Salt Lake Center
09:43AM 44.0375 -108.0761 306° West 141 162 12,000  Level Salt Lake Center
09:44AM 44.0606 -108.1181 307° West 142 163 12,000  Level Salt Lake Center
09:45AM 44.0819 -108.1608 305° West 141 162 12,000  Level Salt Lake Center
09:46AM 44.1072 -108.2122 304° West 142 163 12,000  Level Salt Lake Center
09:47AM 44.1306 -108.2547 307° West 143 165 12,000  Level Salt Lake Center
09:48AM 44.1572 -108.3072 305° West 146 168 12,000  Level Salt Lake Center
09:49AM 44.1800 -108.3525 305° West 148 170 12,000  Level Salt Lake Center
09:51AM 44.2036 -108.3981 306° West 150 173 12,000 -60 Level Salt Lake Center
09:52AM 44.2297 -108.4506 305° West 149 171 11,900 -60 Descending Salt Lake Center
09:53AM 44.2528 -108.4958 305° West 148 170 11,900  Level Salt Lake Center
09:54AM 44.2797 -108.5483 306° West 149 171 11,900 -60 Level Salt Lake Center
09:55AM 44.3033 -108.5956 305° West 151 174 11,800 -300 Descending Salt Lake Center
09:56AM 44.3303 -108.6456 307° West 158 182 11,300 -540 Descending Salt Lake Center